createdAt,value
2018-11-27T00:00:28.914Z,13.30
2018-11-27T00:01:32.888Z,12.27
2018-11-27T00:02:36.295Z,11.40
2018-11-27T00:03:45.043Z,11.90
2018-11-27T00:04:48.485Z,11.03
2018-11-27T00:05:51.902Z,9.63
2018-11-27T00:06:55.362Z,11.23
2018-11-27T00:07:58.955Z,10.77
2018-11-27T00:09:02.449Z,9.47
2018-11-27T00:10:08.556Z,9.67
2018-11-27T00:11:11.951Z,9.80
2018-11-27T00:12:15.379Z,9.33
2018-11-27T00:13:18.885Z,12.67
2018-11-27T00:14:22.360Z,9.03
2018-11-27T00:15:25.803Z,8.87
2018-11-27T00:16:29.293Z,10.47
2018-11-27T00:17:32.820Z,14.13
2018-11-27T00:18:36.291Z,11.30
2018-11-27T00:19:39.735Z,10.47
2018-11-27T00:20:43.235Z,7.67
2018-11-27T00:21:46.744Z,8.83
2018-11-27T00:22:50.154Z,11.73
2018-11-27T00:23:53.662Z,11.30
2018-11-27T00:24:57.098Z,15.00
2018-11-27T00:26:00.596Z,9.97
2018-11-27T00:27:04.089Z,10.20
2018-11-27T00:28:07.540Z,10.00
2018-11-27T00:29:10.998Z,11.93
2018-11-27T00:30:16.383Z,8.27
2018-11-27T00:31:19.992Z,7.47
2018-11-27T00:32:23.415Z,9.83
2018-11-27T00:33:26.810Z,8.30
2018-11-27T00:34:30.200Z,9.60
2018-11-27T00:35:33.697Z,11.03
2018-11-27T00:36:37.118Z,11.17
2018-11-27T00:37:40.639Z,9.00
2018-11-27T00:38:44.166Z,7.90
2018-11-27T00:39:47.642Z,9.50
2018-11-27T00:40:51.078Z,12.17
2018-11-27T00:41:54.535Z,10.23
2018-11-27T00:42:57.941Z,9.17
2018-11-27T00:44:01.349Z,8.77
2018-11-27T00:45:06.995Z,9.33
2018-11-27T00:46:10.440Z,12.50
2018-11-27T00:47:13.870Z,10.67
2018-11-27T00:48:17.342Z,11.43
2018-11-27T00:49:20.757Z,12.00
2018-11-27T00:50:24.981Z,13.23
2018-11-27T00:51:28.401Z,8.70
2018-11-27T00:52:31.831Z,15.63
2018-11-27T00:53:35.224Z,8.50
2018-11-27T00:54:38.665Z,10.63
2018-11-27T00:55:42.131Z,11.50
2018-11-27T00:56:45.641Z,12.40
2018-11-27T00:57:52.502Z,12.30
2018-11-27T00:58:55.921Z,9.70
2018-11-27T00:59:59.475Z,7.87
2018-11-27T01:01:02.943Z,11.73
2018-11-27T01:02:06.873Z,7.20
2018-11-27T01:03:10.256Z,9.83
2018-11-27T01:04:13.783Z,7.47
2018-11-27T01:05:18.614Z,10.40
2018-11-27T01:06:22.087Z,7.10
2018-11-27T01:07:25.501Z,13.20
2018-11-27T01:08:28.930Z,10.00
2018-11-27T01:09:32.458Z,10.03
2018-11-27T01:10:35.892Z,9.23
2018-11-27T01:11:39.306Z,8.87
2018-11-27T01:12:42.768Z,9.00
2018-11-27T01:13:46.237Z,9.83
2018-11-27T01:14:49.644Z,9.80
2018-11-27T01:15:53.078Z,10.40
2018-11-27T01:16:56.547Z,9.53
2018-11-27T01:18:00.037Z,12.57
2018-11-27T01:19:03.517Z,8.63
2018-11-27T01:20:11.239Z,13.23
2018-11-27T01:21:14.707Z,11.27
2018-11-27T01:22:18.156Z,8.23
2018-11-27T01:23:21.564Z,8.10
2018-11-27T01:24:25.018Z,9.40
2018-11-27T01:25:28.441Z,11.93
2018-11-27T01:26:31.858Z,11.77
2018-11-27T01:27:35.286Z,7.33
2018-11-27T01:28:38.708Z,9.80
2018-11-27T01:29:42.115Z,9.70
2018-11-27T01:30:45.504Z,8.77
2018-11-27T01:31:49.006Z,7.70
2018-11-27T01:32:52.750Z,10.00
2018-11-27T01:33:56.170Z,12.43
2018-11-27T01:34:59.566Z,7.00
2018-11-27T01:36:03.041Z,15.20
2018-11-27T01:37:06.503Z,10.90
2018-11-27T01:38:09.926Z,8.33
2018-11-27T01:39:13.315Z,8.70
2018-11-27T01:40:17.924Z,8.63
2018-11-27T01:41:21.335Z,11.07
2018-11-27T01:42:24.768Z,7.03
2018-11-27T01:43:28.217Z,8.33
2018-11-27T01:44:31.620Z,7.70
2018-11-27T01:45:35.309Z,7.87
2018-11-27T01:46:38.761Z,9.00
2018-11-27T01:47:42.215Z,7.97
2018-11-27T01:48:46.041Z,7.90
2018-11-27T01:49:49.683Z,7.33
2018-11-27T01:50:53.101Z,13.10
2018-11-27T01:51:56.493Z,7.97
2018-11-27T01:52:59.949Z,8.20
2018-11-27T01:54:03.443Z,8.73
2018-11-27T01:55:08.657Z,7.10
2018-11-27T01:56:12.081Z,7.77
2018-11-27T01:57:15.579Z,8.50
2018-11-27T01:58:19.300Z,11.67
2018-11-27T01:59:22.746Z,7.67
2018-11-27T02:00:28.404Z,12.27
2018-11-27T02:01:31.882Z,7.27
2018-11-27T02:02:35.322Z,11.60
2018-11-27T02:03:38.887Z,8.37
2018-11-27T02:04:42.330Z,7.57
2018-11-27T02:05:45.774Z,7.00
2018-11-27T02:06:49.237Z,6.80
2018-11-27T02:07:52.675Z,9.57
2018-11-27T02:08:56.067Z,6.40
2018-11-27T02:09:59.596Z,8.20
2018-11-27T02:11:03.082Z,8.67
2018-11-27T02:12:06.878Z,7.30
2018-11-27T02:13:10.400Z,9.57
2018-11-27T02:14:13.819Z,10.07
2018-11-27T02:15:19.575Z,8.20
2018-11-27T02:16:23.033Z,7.17
2018-11-27T02:17:26.445Z,8.20
2018-11-27T02:18:29.873Z,7.33
2018-11-27T02:19:33.301Z,6.93
2018-11-27T02:20:37.504Z,7.83
2018-11-27T02:21:40.940Z,6.73
2018-11-27T02:22:44.411Z,6.07
2018-11-27T02:23:47.824Z,7.83
2018-11-27T02:24:51.252Z,6.90
2018-11-27T02:25:54.822Z,7.10
2018-11-27T02:26:58.242Z,9.37
2018-11-27T02:28:01.669Z,5.83
2018-11-27T02:29:05.215Z,7.60
2018-11-27T02:30:10.774Z,7.73
2018-11-27T02:31:14.267Z,6.73
2018-11-27T02:32:17.860Z,6.20
2018-11-27T02:33:21.553Z,7.37
2018-11-27T02:34:24.989Z,10.43
2018-11-27T02:35:28.452Z,6.70
2018-11-27T02:36:31.889Z,5.40
2018-11-27T02:37:35.298Z,6.00
2018-11-27T02:38:38.722Z,8.53
2018-11-27T02:39:42.132Z,8.67
2018-11-27T02:40:45.624Z,6.10
2018-11-27T02:41:49.071Z,7.23
2018-11-27T02:42:52.523Z,7.60
2018-11-27T02:43:56.127Z,6.37
2018-11-27T02:44:59.546Z,7.23
2018-11-27T02:46:03.175Z,5.90
2018-11-27T02:47:06.794Z,10.23
2018-11-27T02:48:10.209Z,8.03
2018-11-27T02:49:13.608Z,6.87
2018-11-27T02:50:19.212Z,7.67
2018-11-27T02:51:22.691Z,7.13
2018-11-27T02:52:26.119Z,6.87
2018-11-27T02:53:29.530Z,7.37
2018-11-27T02:54:32.977Z,7.43
2018-11-27T02:55:36.457Z,6.67
2018-11-27T02:56:39.864Z,10.50
2018-11-27T02:57:43.307Z,8.63
2018-11-27T02:58:46.804Z,7.07
2018-11-27T02:59:50.281Z,5.83
2018-11-27T03:00:53.698Z,6.63
2018-11-27T03:01:57.104Z,7.43
2018-11-27T03:03:00.729Z,6.10
2018-11-27T03:04:04.132Z,8.93
2018-11-27T03:05:11.159Z,7.57
2018-11-27T03:06:14.571Z,7.00
2018-11-27T03:07:18.123Z,6.17
2018-11-27T03:08:22.664Z,7.67
2018-11-27T03:09:25.067Z,6.57
2018-11-27T03:10:28.507Z,5.83
2018-11-27T03:11:31.949Z,6.90
2018-11-27T03:12:35.410Z,9.80
2018-11-27T03:13:38.839Z,7.33
2018-11-27T03:14:42.238Z,7.43
2018-11-27T03:15:45.687Z,6.23
2018-11-27T03:16:49.107Z,10.87
2018-11-27T03:17:52.525Z,10.30
2018-11-27T03:18:56.028Z,7.63
2018-11-27T03:19:59.436Z,7.60
2018-11-27T03:21:02.932Z,6.07
2018-11-27T03:22:06.577Z,5.70
2018-11-27T03:23:09.981Z,8.17
2018-11-27T03:24:13.406Z,7.17
2018-11-27T03:25:18.928Z,7.30
2018-11-27T03:26:22.358Z,6.57
2018-11-27T03:27:25.838Z,13.43
2018-11-27T03:28:29.396Z,6.53
2018-11-27T03:29:32.814Z,5.50
2018-11-27T03:30:36.256Z,5.13
2018-11-27T03:31:39.727Z,7.67
2018-11-27T03:32:43.464Z,6.60
2018-11-27T03:33:46.874Z,5.87
2018-11-27T03:34:50.319Z,8.87
2018-11-27T03:35:53.745Z,5.60
2018-11-27T03:36:57.185Z,5.97
2018-11-27T03:38:00.670Z,6.03
2018-11-27T03:39:04.778Z,7.77
2018-11-27T03:40:13.701Z,5.97
2018-11-27T03:41:17.154Z,5.20
2018-11-27T03:42:20.590Z,6.20
2018-11-27T03:43:23.984Z,8.23
2018-11-27T03:44:27.425Z,5.50
2018-11-27T03:45:30.834Z,9.90
2018-11-27T03:46:34.269Z,6.90
2018-11-27T03:47:37.691Z,7.20
2018-11-27T03:48:41.074Z,6.50
2018-11-27T03:49:44.563Z,5.87
2018-11-27T03:50:48.144Z,7.07
2018-11-27T03:51:51.599Z,7.40
2018-11-27T03:52:55.022Z,4.40
2018-11-27T03:53:58.459Z,6.27
2018-11-27T03:55:01.864Z,5.77
2018-11-27T03:56:06.141Z,6.20
2018-11-27T03:57:09.552Z,4.60
2018-11-27T03:58:12.976Z,3.83
2018-11-27T03:59:16.423Z,6.40
2018-11-27T04:00:24.524Z,7.47
2018-11-27T04:01:28.016Z,5.43
2018-11-27T04:02:31.447Z,5.23
2018-11-27T04:03:34.894Z,7.37
2018-11-27T04:04:38.406Z,8.43
2018-11-27T04:05:42.765Z,8.67
2018-11-27T04:06:46.297Z,7.20
2018-11-27T04:07:49.775Z,6.20
2018-11-27T04:08:53.625Z,6.77
2018-11-27T04:09:57.020Z,8.77
2018-11-27T04:11:00.441Z,6.13
2018-11-27T04:12:03.939Z,8.23
2018-11-27T04:13:07.335Z,5.30
2018-11-27T04:14:10.768Z,8.53
2018-11-27T04:15:14.377Z,7.60
2018-11-27T04:16:17.787Z,5.63
2018-11-27T04:17:21.665Z,4.50
2018-11-27T04:18:25.049Z,4.17
2018-11-27T04:19:28.487Z,5.27
2018-11-27T04:20:32.372Z,7.13
2018-11-27T04:21:35.367Z,6.40
2018-11-27T04:22:39.396Z,5.63
2018-11-27T04:23:42.839Z,4.73
2018-11-27T04:24:46.322Z,4.97
2018-11-27T04:25:49.759Z,5.30
2018-11-27T04:26:53.267Z,4.60
2018-11-27T04:27:57.023Z,8.87
2018-11-27T04:29:00.482Z,6.93
2018-11-27T04:30:04.181Z,13.00
2018-11-27T04:31:07.616Z,5.90
2018-11-27T04:32:11.112Z,5.77
2018-11-27T04:33:14.634Z,7.30
2018-11-27T04:34:18.075Z,6.53
2018-11-27T04:35:22.351Z,5.30
2018-11-27T04:36:25.758Z,4.17
2018-11-27T04:37:29.187Z,5.30
2018-11-27T04:38:32.720Z,11.83
2018-11-27T04:39:36.155Z,5.50
2018-11-27T04:40:39.586Z,6.10
2018-11-27T04:41:43.014Z,8.17
2018-11-27T04:42:46.578Z,5.53
2018-11-27T04:43:50.057Z,7.27
2018-11-27T04:44:53.456Z,6.23
2018-11-27T04:45:56.965Z,6.60
2018-11-27T04:47:00.403Z,7.33
2018-11-27T04:48:03.869Z,8.57
2018-11-27T04:49:07.732Z,7.07
2018-11-27T04:50:12.547Z,5.57
2018-11-27T04:51:16.019Z,4.50
2018-11-27T04:52:19.432Z,5.40
2018-11-27T04:53:23.085Z,4.50
2018-11-27T04:54:26.493Z,6.40
2018-11-27T04:55:29.933Z,11.20
2018-11-27T04:56:33.451Z,3.83
2018-11-27T04:57:36.828Z,5.03
2018-11-27T04:58:40.287Z,5.30
2018-11-27T04:59:43.743Z,5.23
2018-11-27T05:00:47.226Z,6.03
2018-11-27T05:01:50.585Z,5.77
2018-11-27T05:02:54.065Z,5.67
2018-11-27T05:03:57.481Z,4.23
2018-11-27T05:05:00.931Z,5.60
2018-11-27T05:06:04.367Z,5.40
2018-11-27T05:07:07.825Z,5.50
2018-11-27T05:08:11.250Z,3.80
2018-11-27T05:09:14.686Z,8.80
2018-11-27T05:10:20.099Z,4.30
2018-11-27T05:11:23.476Z,4.37
2018-11-27T05:12:26.887Z,3.77
2018-11-27T05:13:30.309Z,4.30
2018-11-27T05:14:33.825Z,5.50
2018-11-27T05:15:37.256Z,3.40
2018-11-27T05:16:40.650Z,7.17
2018-11-27T05:17:48.025Z,5.50
2018-11-27T05:18:48.331Z,4.20
2018-11-27T05:19:51.723Z,3.63
2018-11-27T05:20:55.292Z,11.63
2018-11-27T05:21:58.694Z,8.17
2018-11-27T05:23:02.095Z,4.57
2018-11-27T05:24:06.612Z,4.40
2018-11-27T05:25:12.370Z,4.17
2018-11-27T05:26:15.825Z,5.60
2018-11-27T05:27:19.232Z,4.30
2018-11-27T05:28:22.617Z,4.10
2018-11-27T05:29:26.033Z,4.30
2018-11-27T05:30:29.811Z,4.17
2018-11-27T05:31:33.244Z,4.30
2018-11-27T05:32:36.718Z,4.50
2018-11-27T05:33:40.118Z,7.50
2018-11-27T05:34:43.522Z,5.53
2018-11-27T05:35:48.080Z,7.80
2018-11-27T05:36:50.487Z,5.87
2018-11-27T05:37:53.917Z,6.10
2018-11-27T05:38:57.366Z,5.33
2018-11-27T05:40:00.853Z,5.47
2018-11-27T05:41:04.488Z,4.37
2018-11-27T05:42:07.900Z,6.43
2018-11-27T05:43:11.481Z,4.80
2018-11-27T05:44:14.920Z,4.93
2018-11-27T05:45:19.642Z,6.10
2018-11-27T05:46:23.099Z,5.40
2018-11-27T05:47:26.662Z,5.00
2018-11-27T05:48:30.106Z,3.47
2018-11-27T05:49:33.526Z,13.53
2018-11-27T05:50:37.023Z,4.23
2018-11-27T05:51:40.394Z,5.70
2018-11-27T05:52:43.867Z,4.80
2018-11-27T05:53:47.271Z,5.87
2018-11-27T05:54:50.747Z,11.70
2018-11-27T05:55:54.159Z,4.70
2018-11-27T05:56:57.566Z,3.77
2018-11-27T05:58:00.991Z,3.00
2018-11-27T05:59:04.446Z,4.40
2018-11-27T06:00:15.537Z,17.87
2018-11-27T06:01:18.971Z,44.00
2018-11-27T06:02:22.495Z,40.50
2018-11-27T06:03:26.077Z,14.83
2018-11-27T06:04:29.521Z,16.60
2018-11-27T06:05:32.993Z,11.03
2018-11-27T06:06:36.445Z,22.27
2018-11-27T06:07:39.903Z,19.63
2018-11-27T06:08:43.351Z,15.30
2018-11-27T06:09:46.824Z,26.33
2018-11-27T06:10:50.419Z,14.80
2018-11-27T06:11:53.858Z,18.13
2018-11-27T06:12:57.427Z,13.53
2018-11-27T06:14:00.884Z,16.77
2018-11-27T06:15:04.903Z,9.77
2018-11-27T06:16:08.399Z,13.40
2018-11-27T06:17:12.086Z,29.33
2018-11-27T06:18:15.589Z,17.87
2018-11-27T06:19:19.108Z,17.67
2018-11-27T06:20:23.377Z,10.70
2018-11-27T06:21:26.800Z,13.93
2018-11-27T06:22:30.225Z,10.60
2018-11-27T06:23:33.684Z,14.53
2018-11-27T06:24:37.191Z,12.73
2018-11-27T06:25:40.658Z,13.67
2018-11-27T06:26:44.119Z,12.77
2018-11-27T06:27:49.193Z,17.07
2018-11-27T06:28:53.207Z,15.77
2018-11-27T06:29:56.753Z,13.60
2018-11-27T06:31:00.315Z,9.53
2018-11-27T06:32:03.720Z,12.73
2018-11-27T06:33:07.280Z,15.27
2018-11-27T06:34:10.742Z,15.33
2018-11-27T06:35:21.033Z,11.40
2018-11-27T06:36:24.465Z,10.13
2018-11-27T06:37:28.016Z,11.77
2018-11-27T06:38:31.464Z,8.30
2018-11-27T06:39:34.887Z,10.73
2018-11-27T06:40:38.397Z,11.00
2018-11-27T06:41:41.851Z,15.50
2018-11-27T06:42:45.346Z,8.77
2018-11-27T06:43:49.202Z,7.57
2018-11-27T06:44:52.608Z,11.40
2018-11-27T06:45:56.023Z,9.97
2018-11-27T06:46:59.448Z,9.80
2018-11-27T06:48:02.864Z,13.00
2018-11-27T06:49:07.081Z,10.50
2018-11-27T06:50:12.735Z,8.90
2018-11-27T06:51:15.249Z,13.97
2018-11-27T06:52:18.817Z,9.50
2018-11-27T06:53:22.402Z,10.17
2018-11-27T06:54:25.812Z,6.30
2018-11-27T06:55:29.362Z,8.27
2018-11-27T06:56:32.836Z,6.27
2018-11-27T06:57:36.623Z,7.40
2018-11-27T06:58:40.133Z,7.70
2018-11-27T06:59:43.675Z,11.27
2018-11-27T07:00:47.232Z,8.20
2018-11-27T07:01:50.727Z,7.87
2018-11-27T07:02:54.791Z,9.60
2018-11-27T07:03:58.337Z,11.20
2018-11-27T07:05:01.714Z,8.63
2018-11-27T07:06:05.406Z,6.43
2018-11-27T07:07:08.803Z,7.60
2018-11-27T07:08:12.294Z,9.90
2018-11-27T07:09:17.439Z,7.80
2018-11-27T07:10:36.764Z,8.13
2018-11-27T07:11:40.273Z,9.70
2018-11-27T07:12:43.787Z,6.10
2018-11-27T07:13:47.249Z,13.63
2018-11-27T07:14:50.741Z,9.20
2018-11-27T07:15:54.308Z,7.40
2018-11-27T07:16:57.712Z,9.53
2018-11-27T07:18:01.168Z,7.23
2018-11-27T07:19:04.634Z,8.80
2018-11-27T07:20:10.339Z,7.10
2018-11-27T07:21:13.873Z,9.40
2018-11-27T07:22:18.229Z,7.37
2018-11-27T07:23:21.640Z,6.53
2018-11-27T07:24:25.090Z,6.00
2018-11-27T07:25:28.510Z,9.17
2018-11-27T07:26:31.919Z,7.00
2018-11-27T07:27:35.347Z,6.53
2018-11-27T07:28:38.751Z,8.47
2018-11-27T07:29:42.174Z,8.30
2018-11-27T07:30:45.607Z,8.23
2018-11-27T07:31:49.078Z,6.10
2018-11-27T07:32:52.617Z,14.43
2018-11-27T07:33:56.035Z,6.87
2018-11-27T07:34:59.404Z,6.37
2018-11-27T07:36:02.877Z,7.77
2018-11-27T07:37:06.567Z,6.90
2018-11-27T07:38:10.127Z,6.50
2018-11-27T07:39:13.527Z,6.77
2018-11-27T07:40:18.579Z,7.23
2018-11-27T07:41:22.069Z,7.03
2018-11-27T07:42:25.480Z,6.97
2018-11-27T07:43:28.875Z,7.50
2018-11-27T07:44:32.274Z,7.90
2018-11-27T07:45:36.047Z,11.20
2018-11-27T07:46:39.529Z,6.53
2018-11-27T07:47:43.016Z,7.60
2018-11-27T07:48:47.640Z,5.63
2018-11-27T07:49:52.683Z,6.00
2018-11-27T07:50:56.182Z,6.10
2018-11-27T07:51:59.699Z,6.50
2018-11-27T07:53:03.111Z,6.60
2018-11-27T07:54:06.547Z,5.90
2018-11-27T07:55:13.387Z,5.70
2018-11-27T07:56:16.861Z,5.40
2018-11-27T07:57:20.405Z,5.83
2018-11-27T07:58:23.776Z,7.30
2018-11-27T07:59:27.177Z,4.47
2018-11-27T08:00:30.647Z,4.40
2018-11-27T08:01:34.167Z,6.87
2018-11-27T08:02:37.665Z,5.53
2018-11-27T08:03:41.107Z,6.50
2018-11-27T08:04:44.539Z,6.10
2018-11-27T08:05:47.993Z,5.97
2018-11-27T08:06:51.456Z,5.00
2018-11-27T08:07:56.159Z,6.90
2018-11-27T08:08:59.586Z,8.13
2018-11-27T08:10:03.049Z,7.33
2018-11-27T08:11:06.612Z,4.77
2018-11-27T08:12:10.034Z,3.87
2018-11-27T08:13:13.591Z,5.63
2018-11-27T08:14:17.023Z,4.90
2018-11-27T08:15:21.918Z,6.60
2018-11-27T08:16:25.363Z,5.57
2018-11-27T08:17:28.806Z,6.30
2018-11-27T08:18:32.203Z,5.37
2018-11-27T08:19:35.667Z,4.27
2018-11-27T08:20:39.139Z,5.53
2018-11-27T08:21:42.560Z,6.10
2018-11-27T08:22:46.053Z,6.03
2018-11-27T08:23:49.665Z,5.67
2018-11-27T08:24:53.113Z,4.73
2018-11-27T08:25:56.699Z,5.30
2018-11-27T08:27:00.127Z,6.30
2018-11-27T08:28:03.598Z,6.30
2018-11-27T08:29:07.391Z,6.57
2018-11-27T08:30:14.742Z,5.23
2018-11-27T08:31:18.261Z,5.10
2018-11-27T08:32:21.673Z,4.93
2018-11-27T08:33:25.141Z,5.47
2018-11-27T08:34:28.628Z,8.90
2018-11-27T08:35:32.304Z,7.23
2018-11-27T08:36:35.731Z,7.43
2018-11-27T08:37:39.263Z,6.37
2018-11-27T08:38:42.736Z,8.30
2018-11-27T08:39:46.198Z,7.83
2018-11-27T08:40:49.738Z,9.73
2018-11-27T08:41:53.139Z,9.97
2018-11-27T08:42:56.552Z,13.53
2018-11-27T08:44:00.015Z,11.13
2018-11-27T08:45:03.455Z,10.37
2018-11-27T08:46:06.929Z,10.90
2018-11-27T08:47:10.343Z,13.93
2018-11-27T08:48:13.784Z,11.07
2018-11-27T08:49:17.411Z,12.07
2018-11-27T08:50:22.121Z,12.37
2018-11-27T08:51:25.545Z,13.10
2018-11-27T08:52:28.981Z,11.30
2018-11-27T08:53:32.397Z,10.60
2018-11-27T08:54:35.879Z,13.33
2018-11-27T08:55:42.631Z,28.13
2018-11-27T08:56:46.126Z,11.77
2018-11-27T08:57:49.911Z,10.53
2018-11-27T08:58:53.444Z,15.80
2018-11-27T08:59:56.847Z,13.33
2018-11-27T09:01:00.273Z,18.63
2018-11-27T09:02:03.905Z,10.77
2018-11-27T09:03:07.396Z,11.10
2018-11-27T09:04:10.891Z,9.23
2018-11-27T09:05:14.799Z,12.43
2018-11-27T09:06:18.399Z,15.53
2018-11-27T09:07:21.904Z,12.40
2018-11-27T09:08:25.317Z,12.80
2018-11-27T09:09:28.813Z,12.23
2018-11-27T09:10:32.257Z,13.30
2018-11-27T09:11:35.743Z,11.27
2018-11-27T09:12:39.280Z,10.00
2018-11-27T09:13:42.723Z,11.13
2018-11-27T09:14:46.203Z,11.80
2018-11-27T09:15:49.731Z,11.77
2018-11-27T09:16:53.183Z,12.63
2018-11-27T09:18:05.242Z,14.07
2018-11-27T09:19:08.695Z,11.83
2018-11-27T09:20:12.940Z,8.73
2018-11-27T09:21:16.408Z,9.80
2018-11-27T09:22:19.931Z,14.00
2018-11-27T09:23:23.347Z,11.47
2018-11-27T09:24:26.821Z,8.80
2018-11-27T09:25:30.240Z,9.80
2018-11-27T09:26:33.698Z,9.83
2018-11-27T09:27:37.337Z,9.80
2018-11-27T09:28:40.763Z,8.33
2018-11-27T09:29:44.113Z,9.27
2018-11-27T09:30:47.550Z,9.67
2018-11-27T09:31:50.977Z,7.37
2018-11-27T09:32:55.476Z,7.80
2018-11-27T09:33:58.874Z,8.33
2018-11-27T09:35:02.351Z,10.20
2018-11-27T09:36:05.982Z,9.90
2018-11-27T09:37:09.397Z,9.13
2018-11-27T09:38:12.834Z,7.47
2018-11-27T09:39:16.293Z,11.50
2018-11-27T09:40:20.569Z,9.43
2018-11-27T09:41:23.999Z,8.17
2018-11-27T09:42:27.415Z,7.40
2018-11-27T09:43:30.827Z,7.13
2018-11-27T09:44:34.257Z,7.53
2018-11-27T09:45:39.253Z,7.53
2018-11-27T09:46:42.684Z,9.07
2018-11-27T09:47:47.372Z,10.60
2018-11-27T09:48:50.795Z,8.87
2018-11-27T09:49:54.202Z,8.53
2018-11-27T09:50:57.621Z,8.53
2018-11-27T09:52:01.027Z,7.20
2018-11-27T09:53:04.696Z,8.63
2018-11-27T09:54:08.222Z,6.30
2018-11-27T09:55:13.911Z,7.23
2018-11-27T09:56:17.419Z,6.00
2018-11-27T09:57:20.848Z,8.10
2018-11-27T09:58:24.267Z,8.50
2018-11-27T09:59:27.692Z,7.20
2018-11-27T10:00:32.543Z,8.77
2018-11-27T10:01:35.932Z,7.17
2018-11-27T10:02:39.408Z,9.60
2018-11-27T10:03:42.804Z,11.33
2018-11-27T10:04:46.213Z,6.30
2018-11-27T10:05:49.636Z,5.83
2018-11-27T10:06:53.064Z,5.77
2018-11-27T10:07:56.522Z,6.50
2018-11-27T10:08:59.917Z,9.10
2018-11-27T10:10:03.390Z,6.43
2018-11-27T10:11:07.333Z,5.90
2018-11-27T10:12:10.794Z,7.97
2018-11-27T10:13:14.388Z,6.60
2018-11-27T10:14:18.137Z,8.20
2018-11-27T10:15:22.919Z,7.20
2018-11-27T10:16:26.331Z,7.80
2018-11-27T10:17:29.727Z,7.57
2018-11-27T10:18:33.187Z,7.97
2018-11-27T10:19:36.595Z,6.23
2018-11-27T10:20:41.463Z,7.27
2018-11-27T10:21:44.897Z,5.70
2018-11-27T10:22:48.376Z,7.53
2018-11-27T10:23:51.877Z,6.87
2018-11-27T10:24:55.360Z,8.80
2018-11-27T10:25:59.778Z,7.00
2018-11-27T10:27:04.259Z,7.03
2018-11-27T10:28:08.962Z,7.40
2018-11-27T10:29:12.411Z,6.20
2018-11-27T10:30:22.990Z,9.20
2018-11-27T10:31:26.435Z,6.63
2018-11-27T10:32:29.845Z,14.00
2018-11-27T10:33:33.283Z,7.20
2018-11-27T10:34:36.790Z,7.33
2018-11-27T10:35:47.348Z,7.03
2018-11-27T10:36:50.833Z,5.73
2018-11-27T10:37:54.252Z,7.37
2018-11-27T10:39:01.020Z,9.03
2018-11-27T10:40:01.179Z,5.63
2018-11-27T10:41:05.269Z,7.30
2018-11-27T10:42:09.087Z,7.83
2018-11-27T10:43:12.486Z,6.33
2018-11-27T10:44:16.000Z,8.57
2018-11-27T10:45:21.656Z,7.33
2018-11-27T10:46:25.303Z,5.67
2018-11-27T10:47:28.742Z,6.13
2018-11-27T10:48:32.185Z,10.03
2018-11-27T10:49:35.643Z,5.33
2018-11-27T10:50:39.123Z,6.87
2018-11-27T10:51:42.560Z,5.93
2018-11-27T10:52:47.951Z,6.47
2018-11-27T10:53:51.347Z,5.83
2018-11-27T10:54:54.797Z,6.57
2018-11-27T10:55:58.258Z,5.97
2018-11-27T10:57:01.725Z,11.50
2018-11-27T10:58:05.853Z,6.60
2018-11-27T10:59:09.244Z,6.40
2018-11-27T11:00:21.134Z,6.00
2018-11-27T11:01:29.990Z,7.47
2018-11-27T11:02:35.158Z,5.87
2018-11-27T11:03:38.581Z,6.67
2018-11-27T11:04:42.084Z,7.00
2018-11-27T11:05:45.673Z,7.37
2018-11-27T11:06:49.389Z,4.90
2018-11-27T11:07:53.360Z,6.93
2018-11-27T11:08:56.773Z,7.00
2018-11-27T11:10:00.225Z,6.03
2018-11-27T11:11:05.369Z,7.00
2018-11-27T11:12:08.826Z,6.70
2018-11-27T11:13:12.329Z,5.77
2018-11-27T11:14:15.799Z,6.33
2018-11-27T11:15:19.293Z,7.33
2018-11-27T11:16:25.126Z,6.70
2018-11-27T11:17:28.590Z,6.07
2018-11-27T11:18:32.126Z,6.70
2018-11-27T11:19:35.552Z,7.23
2018-11-27T11:20:39.127Z,5.70
2018-11-27T11:21:42.589Z,6.73
2018-11-27T11:22:46.050Z,5.83
2018-11-27T11:23:49.523Z,5.10
2018-11-27T11:24:53.052Z,6.83
2018-11-27T11:25:56.525Z,7.80
2018-11-27T11:27:00.061Z,5.30
2018-11-27T11:28:04.538Z,5.70
2018-11-27T11:29:07.992Z,6.57
2018-11-27T11:30:19.904Z,7.00
2018-11-27T11:31:23.431Z,7.07
2018-11-27T11:32:27.000Z,7.60
2018-11-27T11:33:30.887Z,7.10
2018-11-27T11:34:34.471Z,6.40
2018-11-27T11:35:38.150Z,5.50
2018-11-27T11:36:41.677Z,5.17
2018-11-27T11:37:45.665Z,6.20
2018-11-27T11:38:49.501Z,5.70
2018-11-27T11:39:53.248Z,7.00
2018-11-27T11:40:57.143Z,5.43
2018-11-27T11:42:00.751Z,5.60
2018-11-27T11:43:04.497Z,5.37
2018-11-27T11:44:08.192Z,10.97
2018-11-27T11:45:12.617Z,7.50
2018-11-27T11:46:16.049Z,6.00
2018-11-27T11:47:19.464Z,5.97
2018-11-27T11:48:22.942Z,6.30
2018-11-27T11:49:26.672Z,6.57
2018-11-27T11:50:32.219Z,6.37
2018-11-27T11:51:36.757Z,7.73
2018-11-27T11:52:45.275Z,6.40
2018-11-27T11:53:44.427Z,5.63
2018-11-27T11:54:48.377Z,6.23
2018-11-27T11:55:52.293Z,7.13
2018-11-27T11:56:56.311Z,5.57
2018-11-27T11:58:00.014Z,5.83
2018-11-27T11:59:03.637Z,6.30
2018-11-27T12:00:10.717Z,7.50
2018-11-27T12:01:15.461Z,6.10
2018-11-27T12:02:19.158Z,5.77
2018-11-27T12:03:22.810Z,6.60
2018-11-27T12:04:27.951Z,6.67
2018-11-27T12:05:31.384Z,5.23
2018-11-27T12:06:36.115Z,5.30
2018-11-27T12:07:40.799Z,6.77
2018-11-27T12:08:44.267Z,7.47
2018-11-27T12:09:48.827Z,5.90
2018-11-27T12:10:52.613Z,4.80
2018-11-27T12:11:56.225Z,6.30
2018-11-27T12:12:59.962Z,8.40
2018-11-27T12:14:03.985Z,6.10
2018-11-27T12:15:11.070Z,6.67
2018-11-27T12:16:14.766Z,7.30
2018-11-27T12:17:18.434Z,5.37
2018-11-27T12:18:22.027Z,5.50
2018-11-27T12:19:25.396Z,5.37
2018-11-27T12:20:28.815Z,5.97
2018-11-27T12:21:32.452Z,4.63
2018-11-27T12:22:36.074Z,5.30
2018-11-27T12:23:39.493Z,6.57
2018-11-27T12:24:43.065Z,5.33
2018-11-27T12:25:46.633Z,5.10
2018-11-27T12:26:50.449Z,7.20
2018-11-27T12:27:53.846Z,5.57
2018-11-27T12:28:57.256Z,4.57
2018-11-27T12:30:00.722Z,5.70
2018-11-27T12:31:04.153Z,6.63
2018-11-27T12:32:07.616Z,7.40
2018-11-27T12:33:11.084Z,6.73
2018-11-27T12:34:14.509Z,5.50
2018-11-27T12:35:18.613Z,6.40
2018-11-27T12:36:22.331Z,5.83
2018-11-27T12:37:25.996Z,5.43
2018-11-27T12:38:29.571Z,6.60
2018-11-27T12:39:33.293Z,6.00
2018-11-27T12:40:36.883Z,5.40
2018-11-27T12:41:40.806Z,6.17
2018-11-27T12:42:44.550Z,6.47
2018-11-27T12:43:48.397Z,5.40
2018-11-27T12:44:52.103Z,5.90
2018-11-27T12:45:56.123Z,8.30
2018-11-27T12:46:59.750Z,7.30
2018-11-27T12:48:04.215Z,7.80
2018-11-27T12:49:07.873Z,4.80
2018-11-27T12:50:13.716Z,5.40
2018-11-27T12:51:18.023Z,5.87
2018-11-27T12:52:21.536Z,5.43
2018-11-27T12:53:25.500Z,4.73
2018-11-27T12:54:29.268Z,6.07
2018-11-27T12:55:32.994Z,6.00
2018-11-27T12:56:37.940Z,5.20
2018-11-27T12:57:41.641Z,5.23
2018-11-27T12:58:45.398Z,4.90
2018-11-27T12:59:49.169Z,4.90
2018-11-27T13:00:52.642Z,5.43
2018-11-27T13:01:56.073Z,7.77
2018-11-27T13:02:59.516Z,5.83
2018-11-27T13:04:02.993Z,5.67
2018-11-27T13:05:08.008Z,5.70
2018-11-27T13:06:11.452Z,5.63
2018-11-27T13:07:14.866Z,5.67
2018-11-27T13:08:20.886Z,6.10
2018-11-27T13:09:24.363Z,6.43
2018-11-27T13:10:27.784Z,4.93
2018-11-27T13:11:31.225Z,6.20
2018-11-27T13:12:34.840Z,6.70
2018-11-27T13:13:38.214Z,5.80
2018-11-27T13:14:41.641Z,6.70
2018-11-27T13:15:45.814Z,7.30
2018-11-27T13:16:49.239Z,8.77
2018-11-27T13:17:53.288Z,6.43
2018-11-27T13:18:56.713Z,6.80
2018-11-27T13:20:01.007Z,9.90
2018-11-27T13:21:04.230Z,11.00
2018-11-27T13:22:07.709Z,12.37
2018-11-27T13:23:11.164Z,15.13
2018-11-27T13:24:14.772Z,10.30
2018-11-27T13:25:20.805Z,15.00
2018-11-27T13:26:24.239Z,11.70
2018-11-27T13:27:27.636Z,15.97
2018-11-27T13:28:31.040Z,7.77
2018-11-27T13:29:34.459Z,8.47
2018-11-27T13:30:44.923Z,10.40
2018-11-27T13:31:48.433Z,13.27
2018-11-27T13:32:57.720Z,21.90
2018-11-27T13:34:05.719Z,10.23
2018-11-27T13:35:11.344Z,9.50
2018-11-27T13:36:15.414Z,15.73
2018-11-27T13:37:19.359Z,11.57
2018-11-27T13:38:23.065Z,9.93
2018-11-27T13:39:36.238Z,9.17
2018-11-27T13:40:40.077Z,10.73
2018-11-27T13:41:44.170Z,8.70
2018-11-27T13:42:48.263Z,10.90
2018-11-27T13:43:51.753Z,9.67
2018-11-27T13:44:55.834Z,11.00
2018-11-27T13:46:00.701Z,10.37
2018-11-27T13:47:04.582Z,11.90
2018-11-27T13:48:08.567Z,8.27
2018-11-27T13:49:12.229Z,10.37
2018-11-27T13:50:18.039Z,9.17
2018-11-27T13:51:21.604Z,8.83
2018-11-27T13:52:25.309Z,9.33
2018-11-27T13:53:29.202Z,9.00
2018-11-27T13:54:32.968Z,11.20
2018-11-27T13:55:36.497Z,16.77
2018-11-27T13:56:40.233Z,12.47
2018-11-27T13:57:43.887Z,13.57
2018-11-27T13:58:47.764Z,8.80
2018-11-27T13:59:51.663Z,7.50
2018-11-27T14:00:55.518Z,13.13
2018-11-27T14:01:59.383Z,13.43
2018-11-27T14:03:03.253Z,10.57